createdAt,value
2023-03-02T00:02:54.253Z,15.25
2023-03-02T00:07:58.006Z,14.77
2023-03-02T00:12:59.691Z,15.40
2023-03-02T00:18:01.237Z,16.63
2023-03-02T00:23:02.744Z,16.13
2023-03-02T00:28:04.442Z,16.90
2023-03-02T00:33:06.026Z,15.88
2023-03-02T00:38:07.948Z,16.80
2023-03-02T00:43:09.482Z,16.83
2023-03-02T00:48:11.036Z,15.57
2023-03-02T00:53:12.678Z,16.92
2023-03-02T00:58:14.187Z,17.27
2023-03-02T01:03:16.089Z,16.05
2023-03-02T01:08:17.705Z,16.48
2023-03-02T01:13:21.003Z,17.80
2023-03-02T01:24:51.294Z,16.92
2023-03-02T01:29:52.946Z,15.27
2023-03-02T01:34:55.063Z,17.63
2023-03-02T01:39:56.645Z,19.05
2023-03-02T01:44:58.406Z,16.20
2023-03-02T01:50:18.926Z,16.20
2023-03-02T01:55:24.954Z,16.80
2023-03-02T02:00:31.862Z,15.98
2023-03-02T02:05:33.728Z,15.98
2023-03-02T02:10:35.657Z,17.05
2023-03-02T02:15:40.188Z,18.80
2023-03-02T02:20:44.785Z,20.10
2023-03-02T02:25:52.519Z,18.58
2023-03-02T02:31:18.998Z,16.67
2023-03-02T02:36:26.370Z,17.40
2023-03-02T02:41:34.186Z,18.88
2023-03-02T02:46:36.209Z,17.67
2023-03-02T02:51:37.852Z,17.05
2023-03-02T02:56:39.704Z,18.88
2023-03-02T03:01:45.280Z,18.88
2023-03-02T03:06:56.869Z,20.55
2023-03-02T03:12:16.561Z,18.55
2023-03-02T03:17:18.717Z,18.42
2023-03-02T03:22:35.150Z,17.33
2023-03-02T03:27:37.567Z,20.02
2023-03-02T03:32:40.936Z,20.40
2023-03-02T03:37:43.098Z,20.25
2023-03-02T03:42:45.945Z,17.63
2023-03-02T03:47:47.970Z,16.88
2023-03-02T03:52:49.877Z,18.00
2023-03-02T03:57:56.869Z,18.25
2023-03-02T04:02:59.119Z,17.92
2023-03-02T04:08:02.701Z,18.17
2023-03-02T04:13:05.908Z,17.63
2023-03-02T04:18:08.820Z,18.65
2023-03-02T04:23:11.556Z,17.90
2023-03-02T04:28:17.107Z,16.70
2023-03-02T04:33:20.119Z,17.85
2023-03-02T04:38:23.380Z,17.45
2023-03-02T04:43:26.012Z,20.83
2023-03-02T04:48:27.613Z,19.48
2023-03-02T04:53:29.238Z,18.60
2023-03-02T04:58:30.934Z,17.90
2023-03-02T05:03:32.668Z,17.92
2023-03-02T05:08:34.809Z,20.95
2023-03-02T05:13:36.492Z,19.10
2023-03-02T05:18:38.090Z,19.88
2023-03-02T05:23:40.187Z,19.98
2023-03-02T05:28:42.239Z,17.48
2023-03-02T05:33:43.864Z,17.80
2023-03-02T05:38:45.372Z,21.13
2023-03-02T05:43:47.126Z,20.05
2023-03-02T05:48:49.475Z,20.08
2023-03-02T05:53:51.175Z,19.20
2023-03-02T05:58:52.681Z,20.60
2023-03-02T06:03:54.136Z,21.02
2023-03-02T06:08:55.678Z,19.98
2023-03-02T06:13:57.294Z,19.13
2023-03-02T06:18:59.269Z,18.88
2023-03-02T06:24:00.732Z,18.73
2023-03-02T06:29:02.237Z,27.23
2023-03-02T06:34:03.746Z,24.67
2023-03-02T06:39:06.786Z,22.15
2023-03-02T06:44:08.390Z,21.17
2023-03-02T06:49:12.969Z,21.42
2023-03-02T06:54:15.397Z,20.10
2023-03-02T06:59:16.939Z,19.90
2023-03-02T07:04:18.599Z,20.25
2023-03-02T07:09:20.291Z,18.83
2023-03-02T07:14:21.750Z,18.70
2023-03-02T07:19:23.334Z,21.83
2023-03-02T07:24:24.984Z,18.27
2023-03-02T07:29:26.638Z,19.50
2023-03-02T07:34:28.368Z,19.92
2023-03-02T07:39:30.123Z,21.25
2023-03-02T07:44:31.759Z,28.40
2023-03-02T07:49:33.308Z,19.63
2023-03-02T07:54:34.815Z,18.02
2023-03-02T07:59:36.407Z,18.88
2023-03-02T08:04:37.984Z,19.83
2023-03-02T08:09:40.135Z,19.20
2023-03-02T08:14:41.665Z,21.05
2023-03-02T08:19:43.213Z,20.38
2023-03-02T08:24:44.775Z,18.02
2023-03-02T08:29:46.308Z,18.08
2023-03-02T08:34:47.822Z,20.27
2023-03-02T08:39:49.350Z,19.20
2023-03-02T08:44:50.903Z,20.35
2023-03-02T08:49:52.421Z,20.08
2023-03-02T08:54:54.020Z,19.80
2023-03-02T08:59:55.756Z,23.10
2023-03-02T09:04:57.306Z,23.80
2023-03-02T09:09:58.778Z,22.40
2023-03-02T09:15:00.338Z,19.73
2023-03-02T09:20:01.856Z,20.95
2023-03-02T09:25:05.043Z,23.80
2023-03-02T09:30:07.693Z,19.55
2023-03-02T09:35:09.652Z,22.40
2023-03-02T09:40:33.153Z,20.30
2023-03-02T09:45:54.290Z,21.50
2023-03-02T09:51:22.314Z,23.17
2023-03-02T09:56:24.007Z,20.23
2023-03-02T10:01:37.176Z,24.48
2023-03-02T10:06:38.741Z,21.42
2023-03-02T10:12:00.244Z,22.20
2023-03-02T10:17:26.878Z,22.92
2023-03-02T10:22:52.731Z,21.75
2023-03-02T10:28:05.590Z,19.95
2023-03-02T10:33:15.043Z,21.83
2023-03-02T10:38:22.612Z,20.73
2023-03-02T10:43:31.575Z,24.73
2023-03-02T10:48:33.454Z,19.87
2023-03-02T10:53:34.956Z,21.13
2023-03-02T10:58:36.434Z,18.75
2023-03-02T11:03:37.998Z,21.42
2023-03-02T11:08:39.534Z,25.70
2023-03-02T11:13:41.066Z,19.30
2023-03-02T11:18:48.444Z,20.70
2023-03-02T11:24:04.982Z,20.73
2023-03-02T11:29:13.511Z,24.23
2023-03-02T11:34:27.177Z,22.50
2023-03-02T11:39:55.080Z,20.63
2023-03-02T11:45:01.809Z,20.90
2023-03-02T11:50:05.749Z,22.45
2023-03-02T11:55:12.969Z,23.33
2023-03-02T12:00:42.497Z,22.10
2023-03-02T12:05:47.310Z,21.03
2023-03-02T12:11:07.645Z,23.17
2023-03-02T12:16:18.288Z,20.42
2023-03-02T12:21:21.929Z,19.75
2023-03-02T12:26:28.406Z,21.55
2023-03-02T12:31:55.389Z,19.90
2023-03-02T12:37:02.392Z,22.98
2023-03-02T12:42:38.128Z,20.38
2023-03-02T12:47:44.720Z,21.98
2023-03-02T12:52:57.513Z,20.40
2023-03-02T12:58:01.037Z,23.05
2023-03-02T13:03:03.208Z,21.83
2023-03-02T13:08:04.892Z,20.17
2023-03-02T13:13:18.750Z,21.20
2023-03-02T13:18:26.170Z,22.52
2023-03-02T13:23:30.195Z,23.15
2023-03-02T13:28:37.793Z,23.55
2023-03-02T13:33:44.917Z,21.42
2023-03-02T13:38:50.139Z,21.83
2023-03-02T13:43:51.717Z,22.92
2023-03-02T13:49:09.040Z,27.95
2023-03-02T13:54:15.117Z,25.75
2023-03-02T13:59:18.576Z,32.53
2023-03-02T14:04:22.279Z,22.88
2023-03-02T14:09:23.821Z,22.35
2023-03-02T14:14:27.579Z,22.05
2023-03-02T14:19:29.208Z,20.80
2023-03-02T14:24:30.750Z,22.73
2023-03-02T14:29:33.435Z,21.80
2023-03-02T14:34:37.052Z,20.88
2023-03-02T14:39:40.988Z,23.38
2023-03-02T14:44:43.564Z,22.60
2023-03-02T14:49:45.561Z,23.02
2023-03-02T14:54:54.143Z,22.45
2023-03-02T14:59:56.726Z,24.15
2023-03-02T15:04:58.286Z,20.27
2023-03-02T15:09:59.920Z,19.98
2023-03-02T15:15:01.734Z,20.77
2023-03-02T15:20:03.885Z,21.48
2023-03-02T15:25:05.794Z,22.42
2023-03-02T15:30:07.977Z,21.27
2023-03-02T15:35:09.694Z,20.48
2023-03-02T15:40:11.911Z,20.05
2023-03-02T15:45:13.479Z,19.30
2023-03-02T15:50:15.094Z,22.75
2023-03-02T15:55:16.713Z,20.58
2023-03-02T16:00:18.721Z,20.83
2023-03-02T16:05:20.237Z,22.50
2023-03-02T16:10:21.752Z,19.77
2023-03-02T16:15:23.307Z,19.80
2023-03-02T16:20:24.803Z,18.67
2023-03-02T16:25:26.294Z,20.15
2023-03-02T16:30:28.771Z,21.70
2023-03-02T16:35:32.818Z,20.55
2023-03-02T16:40:34.375Z,22.50
2023-03-02T16:45:36.692Z,20.05
2023-03-02T16:50:38.241Z,20.50
2023-03-02T16:55:39.752Z,20.25
2023-03-02T17:00:41.272Z,19.02
2023-03-02T17:05:43.414Z,20.08
2023-03-02T17:10:44.989Z,19.20
2023-03-02T17:15:46.480Z,19.20
2023-03-02T17:20:51.707Z,21.50
2023-03-02T17:25:53.773Z,19.48
2023-03-02T17:30:55.557Z,21.40
2023-03-02T17:35:57.150Z,19.08
2023-03-02T17:41:02.146Z,20.67
2023-03-02T17:46:21.273Z,18.27
2023-03-02T17:51:24.403Z,20.77
2023-03-02T17:56:27.892Z,20.90
2023-03-02T18:01:29.772Z,20.73
2023-03-02T18:06:31.322Z,22.83
2023-03-02T18:11:33.022Z,22.13
2023-03-02T18:16:34.882Z,22.30
2023-03-02T18:21:37.078Z,31.02
2023-03-02T18:26:38.605Z,21.58
2023-03-02T18:31:40.184Z,22.05
2023-03-02T18:36:41.807Z,20.15
2023-03-02T18:41:43.406Z,21.70
2023-03-02T18:46:45.030Z,18.40
2023-03-02T18:51:46.767Z,20.48
2023-03-02T18:56:48.263Z,19.73
2023-03-02T19:01:49.854Z,21.40
2023-03-02T19:06:51.884Z,19.67
2023-03-02T19:11:53.618Z,20.50
2023-03-02T19:16:55.105Z,22.85
2023-03-02T19:21:56.643Z,20.63
2023-03-02T19:26:58.278Z,22.02
2023-03-02T19:32:00.017Z,19.58
2023-03-02T19:37:01.559Z,21.63
2023-03-02T19:42:03.394Z,25.02
2023-03-02T19:47:04.925Z,24.40
2023-03-02T19:52:06.397Z,24.23
2023-03-02T19:57:07.912Z,21.48
2023-03-02T20:02:09.437Z,19.25
2023-03-02T20:07:10.951Z,19.08
2023-03-02T20:12:12.531Z,18.88
2023-03-02T20:17:13.994Z,19.02
2023-03-02T20:22:16.426Z,20.40
2023-03-02T20:27:18.191Z,20.70
2023-03-02T20:32:20.053Z,23.20
2023-03-02T20:37:21.610Z,23.98
2023-03-02T20:42:23.236Z,22.73
2023-03-02T20:47:24.815Z,20.23
2023-03-02T20:52:26.878Z,22.58
2023-03-02T20:57:28.409Z,20.88
2023-03-02T21:02:29.882Z,22.90
2023-03-02T21:07:31.458Z,26.17
2023-03-02T21:12:33.037Z,23.23
2023-03-02T21:17:34.766Z,21.83
2023-03-02T21:22:36.210Z,21.08
2023-03-02T21:27:38.775Z,24.85
2023-03-02T21:32:40.299Z,23.77
2023-03-02T21:37:43.202Z,21.67
2023-03-02T21:42:45.103Z,22.77
2023-03-02T21:47:46.622Z,21.35
2023-03-02T21:52:48.631Z,22.00
2023-03-02T21:57:50.161Z,22.70
2023-03-02T22:02:51.739Z,22.17
2023-03-02T22:07:53.381Z,22.90
2023-03-02T22:13:04.401Z,21.67
2023-03-02T22:18:11.608Z,21.58
2023-03-02T22:23:15.241Z,19.48
2023-03-02T22:28:23.189Z,20.35
2023-03-02T22:33:28.118Z,21.95
2023-03-02T22:38:30.672Z,22.88
2023-03-02T22:43:34.973Z,21.55
2023-03-02T22:48:38.056Z,21.30
2023-03-02T22:53:46.443Z,22.60
2023-03-02T22:58:50.276Z,21.88
2023-03-02T23:04:08.373Z,19.35
2023-03-02T23:09:09.861Z,22.33
2023-03-02T23:14:18.485Z,22.00
2023-03-02T23:19:20.546Z,21.63
2023-03-02T23:24:22.115Z,23.95
2023-03-02T23:29:23.683Z,21.55
2023-03-02T23:34:25.237Z,22.15
2023-03-02T23:39:26.955Z,22.70
2023-03-02T23:44:28.429Z,23.80
2023-03-02T23:49:29.935Z,25.05
2023-03-02T23:54:31.401Z,25.25
2023-03-02T23:59:32.875Z,22.58
